Aérodrome :
LOGIN :

S'inscrire | Disclaimer

   EN    FR    IT 

 










Légende :    VFR   VFR Marginal   IFR   IFR Intensif   IFR Très Intensif
Visi : 
Plafond : 
>= 8 km
>= 3000ft
5 à 8 km
1000 à 3000 ft
1500m à 5 km
500 à 1000 ft
800 à 1500m
200 à 500 ft
< 800m
< 200 ft
Symboles :   Orages  Brouillard  Fortes neiges  Fortes précipitations  Vent > 20 kt
SIGMETs :   Divers  Orages  Givrage  Turbulence  Onde Orograph.  Cendres Volcan.






- Altitude de l'aérodrome : 294 ft
- Code IATA : NAP


LIRN - Naples Capodichino

DERNIER METAR :
  • 180450Z 03003KT CAVOK 13/11 Q1019 NOSIG

METARs EXPIRÉS :
  • 180420Z 01003KT 9999 FEW040 14/11 Q1019 NOSIG
  • 180350Z 01003KT 9999 FEW040 13/11 Q1019 NOSIG
  • 180320Z 03003KT 9999 FEW040 13/11 Q1019 NOSIG
  • 180250Z 02003KT 9999 FEW040 13/11 Q1019 NOSIG
  • 180220Z 36002KT 9999 FEW030 13/11 Q1019 NOSIG

TAF TAF LIRN
Valide du 18 à 00h jusqu'au 19 à 00h UTC


172300Z 1800/1824 VRB04KT 9999 FEW030
BECMG 1810/1812 23010KT
BECMG 1816/1818 VRB05KT



MET'MAP, la Météo Aéronautique d'un coup d'oeil ! - Copyright ORBIFLY Décembre 2007 - Disclaimer

ORBIFLY MET'MAP TEAM :

Programmation & Développement : Alexandra Zaïnal
Conception & Développement : Baudouin d'Aumeries
Co-Programmation & Développement : Marc-Olivier Méhu
Soutien technique & logistique : Manuel Goepfert

Contact : metmap@orbifly.com




SOURCES & CREDITS :

   NOAA